Time;durP1;ratioP1;P1;durP2;ratioP2;P2;SDS_P1;SDS_P2;PMS_P1;PMS_P2;Temp;Humidity;BMP_temperature;BMP_pressure;BME280_temperature;BME280_humidity;BME280_pressure;Samples;Min_cycle;Max_cycle;Signal;HPM_P1;HPM_P2
2023/11/15 00:01:37;;;;;;;0.68;0.68;;;;;;;;;;6311111;22;20176;-80
2023/11/15 00:04:08;;;;;;;1.58;1.48;;;;;;;;;;6310686;22;20200;-80
2023/11/15 00:06:36;;;;;;;0.70;0.70;;;;;;;;;;6312157;22;20163;-81
2023/11/15 00:09:05;;;;;;;0.60;0.60;;;;;;;;;;6312077;22;20200;-80
2023/11/15 00:11:35;;;;;;;1.75;0.70;;;;;;;;;;6312000;22;20728;-82
2023/11/15 00:14:03;;;;;;;1.13;0.80;;;;;;;;;;6312277;22;20176;-81
2023/11/15 00:16:31;;;;;;;0.65;0.65;;;;;;;;;;6312872;22;20172;-81
2023/11/15 00:18:58;;;;;;;0.63;0.63;;;;;;;;;;6312029;22;20289;-82
2023/11/15 00:21:27;;;;;;;0.60;0.60;;;;;;;;;;6312030;22;20196;-82
2023/11/15 00:23:55;;;;;;;1.95;1.02;;;;;;;;;;6311473;22;20698;-82
2023/11/15 00:26:24;;;;;;;1.58;0.80;;;;;;;;;;6311521;22;20199;-83
2023/11/15 00:28:52;;;;;;;0.82;0.60;;;;;;;;;;6311519;22;20172;-82
2023/11/15 00:31:20;;;;;;;0.80;0.80;;;;;;;;;;6311527;22;20252;-82
2023/11/15 00:33:47;;;;;;;0.70;0.70;;;;;;;;;;6311237;22;20168;-82
2023/11/15 00:36:19;;;;;;;0.55;0.55;;;;;;;;;;6311086;22;20172;-80
2023/11/15 00:38:49;;;;;;;1.45;0.80;;;;;;;;;;6311226;22;20176;-82
2023/11/15 00:41:18;;;;;;;0.55;0.55;;;;;;;;;;6311978;22;20644;-83
2023/11/15 00:43:45;;;;;;;0.60;0.60;;;;;;;;;;6312392;22;20656;-82
2023/11/15 00:46:15;;;;;;;0.57;0.57;;;;;;;;;;6312880;22;20198;-82
2023/11/15 00:48:43;;;;;;;0.70;0.70;;;;;;;;;;6313011;22;20179;-80
2023/11/15 00:51:10;;;;;;;0.60;0.60;;;;;;;;;;6313000;22;20223;-80
2023/11/15 00:53:38;;;;;;;0.90;0.90;;;;;;;;;;6313395;22;20172;-82
2023/11/15 00:56:09;;;;;;;0.70;0.70;;;;;;;;;;6313466;22;20194;-82
2023/11/15 00:58:38;;;;;;;1.10;0.68;;;;;;;;;;6313084;22;20185;-84
2023/11/15 01:01:10;;;;;;;0.70;0.70;;;;;;;;;;6313699;22;20198;-83
2023/11/15 01:03:41;;;;;;;2.92;0.95;;;;;;;;;;6314133;22;20176;-82
2023/11/15 01:06:09;;;;;;;1.83;1.33;;;;;;;;;;6314111;22;20172;-83
2023/11/15 01:08:37;;;;;;;2.63;1.10;;;;;;;;;;6314071;22;20540;-83
2023/11/15 01:11:07;;;;;;;1.55;1.45;;;;;;;;;;6314607;22;20192;-84
2023/11/15 01:13:35;;;;;;;1.58;1.15;;;;;;;;;;6313988;22;20175;-83
2023/11/15 01:16:04;;;;;;;0.90;0.90;;;;;;;;;;6313846;22;20174;-82
2023/11/15 01:18:33;;;;;;;1.42;1.05;;;;;;;;;;6312366;22;20167;-82
2023/11/15 01:21:01;;;;;;;0.80;0.80;;;;;;;;;;6313504;22;20231;-83
2023/11/15 01:23:30;;;;;;;1.33;1.05;;;;;;;;;;6313717;22;20167;-83
2023/11/15 01:25:57;;;;;;;2.50;1.30;;;;;;;;;;6313646;22;20505;-82
2023/11/15 01:28:26;;;;;;;0.80;0.80;;;;;;;;;;6313466;22;20175;-84
2023/11/15 01:30:54;;;;;;;1.45;1.08;;;;;;;;;;6312970;22;20241;-81
2023/11/15 01:33:22;;;;;;;1.20;1.10;;;;;;;;;;6313191;22;20172;-81
2023/11/15 01:35:49;;;;;;;2.13;1.00;;;;;;;;;;6313922;22;20174;-81
2023/11/15 01:38:17;;;;;;;2.97;1.10;;;;;;;;;;6313511;22;20640;-82
2023/11/15 01:40:46;;;;;;;3.35;1.27;;;;;;;;;;6313024;22;20188;-80
2023/11/15 01:43:16;;;;;;;1.13;1.02;;;;;;;;;;6313423;22;20250;-82
2023/11/15 01:45:46;;;;;;;1.33;1.27;;;;;;;;;;6312976;22;20191;-82
2023/11/15 01:48:15;;;;;;;1.23;1.13;;;;;;;;;;6312481;22;20168;-82
2023/11/15 01:50:43;;;;;;;2.95;1.58;;;;;;;;;;6314384;22;20192;-82
2023/11/15 01:53:10;;;;;;;2.05;1.65;;;;;;;;;;6314154;22;20554;-82
2023/11/15 01:55:39;;;;;;;1.90;1.50;;;;;;;;;;6314646;22;20199;-84
2023/11/15 01:58:07;;;;;;;1.55;1.00;;;;;;;;;;6315141;22;20223;-84
2023/11/15 02:00:35;;;;;;;1.80;1.30;;;;;;;;;;6314990;22;20195;-84
2023/11/15 02:03:04;;;;;;;4.10;1.83;;;;;;;;;;6315499;22;20246;-83
2023/11/15 02:05:32;;;;;;;1.05;1.00;;;;;;;;;;6313942;22;20271;-83
2023/11/15 02:07:59;;;;;;;3.03;1.70;;;;;;;;;;6314951;22;20203;-85
2023/11/15 02:10:27;;;;;;;1.70;1.40;;;;;;;;;;6315006;22;20198;-84
2023/11/15 02:12:55;;;;;;;3.00;1.60;;;;;;;;;;6314132;22;20179;-82
2023/11/15 02:15:23;;;;;;;1.85;1.25;;;;;;;;;;6313820;22;20218;-84
2023/11/15 02:17:51;;;;;;;1.60;1.50;;;;;;;;;;6314626;22;20176;-84
2023/11/15 02:20:22;;;;;;;2.05;1.50;;;;;;;;;;6314595;22;20200;-83
2023/11/15 02:22:51;;;;;;;3.83;1.50;;;;;;;;;;6314151;22;20176;-82
2023/11/15 02:25:21;;;;;;;4.40;2.75;;;;;;;;;;6313853;22;20230;-81
2023/11/15 02:27:48;;;;;;;2.03;1.58;;;;;;;;;;6314192;22;20229;-82
2023/11/15 02:30:16;;;;;;;1.55;1.38;;;;;;;;;;6314623;22;20196;-82
2023/11/15 02:32:44;;;;;;;1.98;1.65;;;;;;;;;;6312697;22;20567;-84
2023/11/15 02:35:12;;;;;;;3.88;2.08;;;;;;;;;;6313758;22;20475;-84
2023/11/15 02:37:40;;;;;;;1.90;1.75;;;;;;;;;;6313773;22;20183;-84
2023/11/15 02:40:10;;;;;;;1.58;1.20;;;;;;;;;;6313412;22;20576;-82
2023/11/15 02:42:39;;;;;;;2.10;1.65;;;;;;;;;;6313594;22;20156;-82
2023/11/15 02:45:08;;;;;;;1.50;1.20;;;;;;;;;;6314541;22;20220;-83
2023/11/15 02:47:35;;;;;;;1.77;1.50;;;;;;;;;;6313991;22;20164;-82
2023/11/15 02:50:03;;;;;;;2.08;1.98;;;;;;;;;;6313851;22;20223;-83
2023/11/15 02:52:31;;;;;;;3.63;1.55;;;;;;;;;;6314444;22;20174;-83
2023/11/15 02:54:59;;;;;;;2.17;1.63;;;;;;;;;;6314565;22;20172;-84
2023/11/15 02:57:26;;;;;;;2.25;1.60;;;;;;;;;;6314658;22;20178;-82
2023/11/15 02:59:55;;;;;;;1.80;1.40;;;;;;;;;;6314490;22;20199;-81
2023/11/15 03:02:23;;;;;;;3.85;1.30;;;;;;;;;;6314841;22;20171;-82
2023/11/15 03:04:50;;;;;;;1.70;1.60;;;;;;;;;;6314922;22;20187;-82
2023/11/15 03:07:18;;;;;;;1.55;1.40;;;;;;;;;;6314281;22;20252;-84
2023/11/15 03:09:46;;;;;;;1.33;1.23;;;;;;;;;;6314305;22;20229;-83
2023/11/15 03:12:13;;;;;;;2.08;1.50;;;;;;;;;;6313742;22;20203;-83
2023/11/15 03:14:41;;;;;;;2.13;1.70;;;;;;;;;;6314383;22;20172;-83
2023/11/15 03:17:16;;;;;;;1.88;1.77;;;;;;;;;;6314558;22;20180;-84
2023/11/15 03:19:44;;;;;;;1.83;1.73;;;;;;;;;;6313531;22;20244;-83
2023/11/15 03:22:12;;;;;;;1.20;1.15;;;;;;;;;;6314436;22;20168;-83
2023/11/15 03:24:42;;;;;;;1.02;0.98;;;;;;;;;;6314555;22;20171;-82
2023/11/15 03:27:09;;;;;;;1.25;0.90;;;;;;;;;;6314202;22;20222;-82
2023/11/15 03:29:37;;;;;;;1.60;1.50;;;;;;;;;;6314878;22;20210;-84
2023/11/15 03:32:05;;;;;;;1.77;1.20;;;;;;;;;;6314031;22;20175;-83
2023/11/15 03:34:35;;;;;;;1.50;1.40;;;;;;;;;;6313904;22;20176;-82
2023/11/15 03:37:04;;;;;;;1.30;1.20;;;;;;;;;;6314529;22;20589;-82
2023/11/15 03:39:34;;;;;;;1.50;1.27;;;;;;;;;;6314192;22;20248;-82
2023/11/15 03:42:02;;;;;;;1.92;1.20;;;;;;;;;;6314240;22;20612;-83
2023/11/15 03:44:30;;;;;;;2.05;1.65;;;;;;;;;;6313881;22;20241;-81
2023/11/15 03:46:56;;;;;;;1.42;1.33;;;;;;;;;;6314709;22;20230;-82
2023/11/15 03:49:24;;;;;;;2.72;1.50;;;;;;;;;;6314907;22;20176;-82
2023/11/15 03:51:53;;;;;;;2.22;1.60;;;;;;;;;;6314388;22;20176;-84
2023/11/15 03:54:20;;;;;;;1.40;1.30;;;;;;;;;;6314558;22;20176;-81
2023/11/15 03:56:48;;;;;;;2.28;1.40;;;;;;;;;;6314800;22;20196;-83
2023/11/15 03:59:16;;;;;;;1.38;1.27;;;;;;;;;;6315002;22;20180;-82
2023/11/15 04:01:44;;;;;;;1.33;1.23;;;;;;;;;;6314808;22;20175;-83
2023/11/15 04:04:11;;;;;;;1.58;1.48;;;;;;;;;;6314178;22;20209;-82
2023/11/15 04:06:39;;;;;;;1.95;1.42;;;;;;;;;;6313934;22;20759;-83
2023/11/15 04:09:10;;;;;;;3.00;1.40;;;;;;;;;;6314649;22;20172;-83
2023/11/15 04:11:39;;;;;;;1.55;1.40;;;;;;;;;;6314529;22;20218;-83
2023/11/15 04:14:06;;;;;;;2.38;1.33;;;;;;;;;;6315086;22;20168;-84
2023/11/15 04:16:34;;;;;;;3.15;1.30;;;;;;;;;;6314688;22;20182;-82
2023/11/15 04:19:02;;;;;;;2.20;1.10;;;;;;;;;;6313709;22;20168;-83
2023/11/15 04:21:30;;;;;;;1.10;1.00;;;;;;;;;;6313946;22;20193;-83
2023/11/15 04:23:57;;;;;;;1.20;1.00;;;;;;;;;;6314750;22;20176;-83
2023/11/15 04:26:26;;;;;;;2.05;0.90;;;;;;;;;;6314783;22;20187;-83
2023/11/15 04:31:28;;;;;;;0.93;0.93;;;;;;;;;;6313802;22;20517;-83
2023/11/15 04:33:56;;;;;;;1.33;1.23;;;;;;;;;;6313751;22;20644;-83
2023/11/15 04:36:23;;;;;;;0.70;0.70;;;;;;;;;;6314064;22;20705;-84
2023/11/15 04:38:51;;;;;;;0.90;0.90;;;;;;;;;;6314132;22;20171;-82
2023/11/15 04:41:20;;;;;;;1.13;1.00;;;;;;;;;;6313224;22;20183;-83
2023/11/15 04:43:48;;;;;;;1.10;1.00;;;;;;;;;;6313211;22;20167;-83
2023/11/15 04:46:16;;;;;;;1.08;0.82;;;;;;;;;;6314419;22;20214;-81
2023/11/15 04:48:44;;;;;;;1.15;0.90;;;;;;;;;;6312961;22;20244;-83
2023/11/15 04:51:11;;;;;;;5.43;1.60;;;;;;;;;;6314167;22;20513;-82
2023/11/15 04:53:39;;;;;;;1.10;1.10;;;;;;;;;;6314771;22;20171;-81
2023/11/15 04:56:08;;;;;;;0.88;0.80;;;;;;;;;;6314586;22;20635;-82
2023/11/15 04:58:35;;;;;;;0.80;0.80;;;;;;;;;;6313486;22;20183;-83
2023/11/15 05:01:05;;;;;;;0.95;0.68;;;;;;;;;;6312892;22;20203;-83
2023/11/15 05:03:33;;;;;;;0.77;0.77;;;;;;;;;;6313405;22;20556;-81
2023/11/15 05:06:00;;;;;;;3.08;1.75;;;;;;;;;;6313380;22;20266;-82
2023/11/15 05:08:28;;;;;;;0.73;0.73;;;;;;;;;;6313494;22;20179;-84
2023/11/15 05:10:55;;;;;;;0.55;0.55;;;;;;;;;;6313345;22;20211;-83
2023/11/15 05:13:23;;;;;;;0.70;0.70;;;;;;;;;;6313037;22;20174;-84
2023/11/15 05:15:51;;;;;;;0.60;0.60;;;;;;;;;;6313014;22;20203;-84
2023/11/15 05:18:20;;;;;;;0.80;0.80;;;;;;;;;;6313731;22;20171;-84
2023/11/15 05:20:48;;;;;;;0.65;0.65;;;;;;;;;;6313509;22;20188;-82
2023/11/15 05:23:15;;;;;;;0.40;0.40;;;;;;;;;;6313951;22;20243;-83
2023/11/15 05:25:43;;;;;;;0.70;0.70;;;;;;;;;;6316595;22;20210;-83
2023/11/15 05:28:11;;;;;;;0.60;0.60;;;;;;;;;;6315335;22;20190;-83
2023/11/15 05:30:40;;;;;;;0.70;0.70;;;;;;;;;;6315563;22;20278;-84
2023/11/15 05:33:08;;;;;;;0.68;0.68;;;;;;;;;;6316562;22;20168;-84
2023/11/15 05:35:37;;;;;;;0.75;0.60;;;;;;;;;;6316169;22;20234;-84
2023/11/15 05:38:07;;;;;;;0.60;0.60;;;;;;;;;;6315351;22;20195;-82
2023/11/15 05:40:35;;;;;;;0.50;0.50;;;;;;;;;;6315280;22;20191;-81
2023/11/15 05:43:02;;;;;;;0.95;0.70;;;;;;;;;;6315551;22;20191;-81
2023/11/15 05:45:30;;;;;;;0.70;0.70;;;;;;;;;;6313423;22;20206;-82
2023/11/15 05:47:58;;;;;;;0.57;0.57;;;;;;;;;;6311302;22;20223;-83
2023/11/15 05:50:25;;;;;;;0.50;0.50;;;;;;;;;;6311579;22;20188;-83
2023/11/15 05:52:54;;;;;;;0.60;0.60;;;;;;;;;;6311285;22;20250;-82
2023/11/15 05:55:22;;;;;;;0.52;0.52;;;;;;;;;;6311445;22;20251;-82
2023/11/15 05:57:50;;;;;;;0.60;0.50;;;;;;;;;;6313624;22;20194;-83
2023/11/15 06:00:20;;;;;;;0.45;0.40;;;;;;;;;;6313622;22;20656;-82
2023/11/15 06:02:48;;;;;;;1.40;0.52;;;;;;;;;;6311657;22;20605;-83
2023/11/15 06:05:16;;;;;;;0.50;0.50;;;;;;;;;;6311588;22;20172;-82
2023/11/15 06:07:44;;;;;;;0.40;0.40;;;;;;;;;;6311191;22;20196;-82
2023/11/15 06:10:14;;;;;;;0.50;0.50;;;;;;;;;;6311538;22;20243;-83
2023/11/15 06:12:41;;;;;;;0.50;0.50;;;;;;;;;;6311920;22;20250;-82
2023/11/15 06:15:11;;;;;;;0.52;0.52;;;;;;;;;;6311601;22;20199;-82
2023/11/15 06:17:39;;;;;;;0.75;0.70;;;;;;;;;;6311394;22;20167;-83
2023/11/15 06:20:09;;;;;;;0.70;0.70;;;;;;;;;;6310855;22;20184;-82
2023/11/15 06:22:38;;;;;;;1.13;0.57;;;;;;;;;;6310887;22;20174;-82
2023/11/15 06:25:07;;;;;;;0.60;0.60;;;;;;;;;;6311745;22;20207;-81
2023/11/15 06:27:37;;;;;;;0.50;0.50;;;;;;;;;;6312280;22;20233;-81
2023/11/15 06:30:08;;;;;;;0.55;0.55;;;;;;;;;;6310710;22;20202;-83
2023/11/15 06:32:36;;;;;;;1.15;0.63;;;;;;;;;;6310600;22;20163;-81
2023/11/15 06:35:03;;;;;;;0.65;0.50;;;;;;;;;;6311200;22;20203;-81
2023/11/15 06:37:33;;;;;;;0.45;0.45;;;;;;;;;;6310943;22;20243;-82
2023/11/15 06:40:06;;;;;;;0.90;0.90;;;;;;;;;;6311472;22;20195;-79
2023/11/15 06:42:35;;;;;;;0.60;0.60;;;;;;;;;;6311196;22;20654;-81
2023/11/15 06:45:04;;;;;;;0.70;0.70;;;;;;;;;;6311564;22;20183;-82
2023/11/15 06:47:31;;;;;;;0.65;0.65;;;;;;;;;;6310935;22;20192;-82
2023/11/15 06:49:59;;;;;;;0.68;0.68;;;;;;;;;;6311672;22;20690;-82
2023/11/15 06:52:26;;;;;;;0.80;0.80;;;;;;;;;;6312402;22;20562;-81
2023/11/15 06:54:54;;;;;;;0.70;0.70;;;;;;;;;;6312439;22;20179;-82
2023/11/15 06:57:21;;;;;;;0.60;0.60;;;;;;;;;;6312282;22;20203;-82
2023/11/15 06:59:50;;;;;;;1.13;0.60;;;;;;;;;;6311330;22;20226;-82
2023/11/15 07:02:18;;;;;;;0.70;0.70;;;;;;;;;;6312742;22;20211;-81
2023/11/15 07:04:45;;;;;;;2.13;1.00;;;;;;;;;;6312517;22;20172;-82
2023/11/15 07:07:14;;;;;;;1.15;0.90;;;;;;;;;;6311465;22;20275;-84
2023/11/15 07:09:41;;;;;;;0.98;0.82;;;;;;;;;;6310594;22;20187;-84
2023/11/15 07:12:10;;;;;;;3.13;1.13;;;;;;;;;;6311141;22;20182;-84
2023/11/15 07:14:37;;;;;;;1.50;1.20;;;;;;;;;;6311063;22;20505;-81
2023/11/15 07:17:07;;;;;;;1.35;0.90;;;;;;;;;;6310527;22;20204;-82
2023/11/15 07:19:35;;;;;;;0.98;0.93;;;;;;;;;;6311295;22;20191;-81
2023/11/15 07:22:03;;;;;;;1.05;1.05;;;;;;;;;;6310961;22;20250;-81
2023/11/15 07:24:30;;;;;;;1.15;1.15;;;;;;;;;;6310778;22;20167;-84
2023/11/15 07:26:58;;;;;;;2.13;0.80;;;;;;;;;;6310673;22;20229;-81
2023/11/15 07:29:26;;;;;;;2.25;1.90;;;;;;;;;;6311087;22;20203;-80
2023/11/15 07:31:54;;;;;;;1.20;1.10;;;;;;;;;;6311472;22;20621;-81
2023/11/15 07:34:23;;;;;;;1.45;1.05;;;;;;;;;;6310023;22;20168;-81
2023/11/15 07:36:53;;;;;;;1.48;1.05;;;;;;;;;;6311727;22;20195;-81
2023/11/15 07:39:21;;;;;;;1.00;1.00;;;;;;;;;;6311174;22;20167;-81
2023/11/15 07:41:49;;;;;;;4.50;1.13;;;;;;;;;;6311877;22;20183;-82
2023/11/15 07:44:18;;;;;;;1.00;1.00;;;;;;;;;;6310999;22;20172;-80
2023/11/15 07:46:49;;;;;;;1.30;1.20;;;;;;;;;;6310748;22;20176;-82
2023/11/15 07:49:18;;;;;;;2.03;1.05;;;;;;;;;;6311493;22;20545;-83
2023/11/15 07:51:47;;;;;;;1.00;1.00;;;;;;;;;;6311439;22;20175;-84
2023/11/15 07:54:15;;;;;;;1.13;1.00;;;;;;;;;;6310270;22;20246;-84
2023/11/15 07:56:45;;;;;;;1.10;1.08;;;;;;;;;;6310737;22;20204;-84
2023/11/15 07:59:13;;;;;;;1.23;0.98;;;;;;;;;;6310259;22;20229;-81
2023/11/15 08:01:42;;;;;;;1.20;1.10;;;;;;;;;;6310700;22;20675;-81
2023/11/15 08:04:11;;;;;;;0.75;0.75;;;;;;;;;;6310765;22;20672;-82
2023/11/15 08:06:40;;;;;;;1.10;1.00;;;;;;;;;;6310851;22;20211;-81
2023/11/15 08:09:11;;;;;;;0.73;0.73;;;;;;;;;;6310929;22;20194;-82
2023/11/15 08:11:39;;;;;;;0.52;0.52;;;;;;;;;;6311599;22;20593;-81
2023/11/15 08:14:06;;;;;;;0.80;0.80;;;;;;;;;;6311258;22;20549;-82
2023/11/15 08:16:34;;;;;;;0.90;0.82;;;;;;;;;;6311330;22;20625;-82
2023/11/15 08:19:02;;;;;;;0.57;0.57;;;;;;;;;;6310517;22;20198;-82
2023/11/15 08:21:30;;;;;;;0.90;0.90;;;;;;;;;;6310167;22;20223;-81
2023/11/15 08:23:58;;;;;;;2.70;1.30;;;;;;;;;;6310732;22;20672;-81
2023/11/15 08:26:27;;;;;;;1.90;1.10;;;;;;;;;;6309599;22;20167;-80
2023/11/15 08:28:55;;;;;;;1.10;1.10;;;;;;;;;;6310652;22;20590;-81
2023/11/15 08:31:23;;;;;;;0.98;0.95;;;;;;;;;;6310890;22;20648;-83
2023/11/15 08:33:51;;;;;;;1.40;1.20;;;;;;;;;;6310476;22;20171;-82
2023/11/15 08:36:18;;;;;;;1.05;1.05;;;;;;;;;;6310442;22;20662;-83
2023/11/15 08:38:46;;;;;;;1.55;1.45;;;;;;;;;;6308983;22;20210;-83
2023/11/15 08:41:17;;;;;;;0.93;0.93;;;;;;;;;;6308816;22;20188;-80
2023/11/15 08:43:46;;;;;;;1.30;1.27;;;;;;;;;;6309363;22;20197;-81
2023/11/15 08:46:16;;;;;;;2.63;1.67;;;;;;;;;;6309679;22;20210;-80
2023/11/15 08:48:44;;;;;;;1.25;1.02;;;;;;;;;;6308370;22;20203;-79
2023/11/15 08:51:11;;;;;;;1.48;1.38;;;;;;;;;;6309123;22;20210;-79
2023/11/15 08:53:39;;;;;;;1.48;1.30;;;;;;;;;;6309540;22;20171;-79
2023/11/15 08:56:09;;;;;;;0.82;0.82;;;;;;;;;;6309356;22;20203;-79
2023/11/15 08:58:37;;;;;;;0.73;0.70;;;;;;;;;;6310378;22;20198;-78
2023/11/15 09:01:09;;;;;;;0.70;0.70;;;;;;;;;;6310672;22;20171;-78
2023/11/15 09:03:38;;;;;;;0.90;0.90;;;;;;;;;;6310016;22;20160;-81
2023/11/15 09:06:08;;;;;;;1.00;0.90;;;;;;;;;;6311740;22;20789;-80
2023/11/15 09:08:38;;;;;;;1.25;0.75;;;;;;;;;;6311079;22;20284;-80
2023/11/15 09:11:06;;;;;;;0.65;0.65;;;;;;;;;;6312087;22;20229;-79
2023/11/15 09:13:34;;;;;;;0.60;0.60;;;;;;;;;;6310132;22;20229;-80
2023/11/15 09:16:01;;;;;;;0.60;0.60;;;;;;;;;;6310824;22;20171;-79
2023/11/15 09:18:31;;;;;;;0.70;0.70;;;;;;;;;;6310630;22;20237;-79
2023/11/15 09:20:58;;;;;;;0.60;0.60;;;;;;;;;;6310405;22;20172;-79
2023/11/15 09:23:26;;;;;;;0.80;0.70;;;;;;;;;;6310986;22;20662;-79
2023/11/15 09:25:53;;;;;;;0.65;0.65;;;;;;;;;;6311272;22;20548;-79
2023/11/15 09:28:22;;;;;;;0.70;0.70;;;;;;;;;;6310511;22;20195;-81
2023/11/15 09:30:51;;;;;;;2.15;1.65;;;;;;;;;;6310043;22;20176;-80
2023/11/15 09:33:20;;;;;;;1.83;1.23;;;;;;;;;;6311191;22;20671;-80
2023/11/15 09:35:49;;;;;;;1.80;1.23;;;;;;;;;;6309426;22;20215;-81
2023/11/15 09:38:17;;;;;;;3.00;1.23;;;;;;;;;;6310117;22;20223;-81
2023/11/15 09:40:48;;;;;;;2.85;1.33;;;;;;;;;;6311506;22;20176;-81
2023/11/15 09:43:16;;;;;;;1.80;1.25;;;;;;;;;;6310801;22;20163;-78
2023/11/15 09:45:44;;;;;;;2.60;1.60;;;;;;;;;;6310101;22;20176;-80
2023/11/15 09:48:12;;;;;;;2.42;1.27;;;;;;;;;;6311202;22;20278;-81
2023/11/15 09:50:41;;;;;;;2.10;1.35;;;;;;;;;;6309594;22;20585;-81
2023/11/15 09:53:11;;;;;;;1.08;0.98;;;;;;;;;;6310826;22;20175;-81
2023/11/15 09:55:39;;;;;;;1.70;1.10;;;;;;;;;;6310439;22;20157;-80
2023/11/15 09:58:06;;;;;;;1.67;1.13;;;;;;;;;;6310800;22;20201;-79
2023/11/15 10:00:34;;;;;;;1.73;1.63;;;;;;;;;;6309647;22;20202;-80
2023/11/15 10:03:01;;;;;;;2.28;1.20;;;;;;;;;;6310057;22;20223;-81
2023/11/15 10:05:29;;;;;;;1.98;1.88;;;;;;;;;;6309498;22;20172;-84
2023/11/15 10:08:10;;;;;;;0.80;0.80;;;;;;;;;;6312428;22;20255;-80
2023/11/15 10:10:39;;;;;;;1.00;1.00;;;;;;;;;;6312929;22;20180;-80
2023/11/15 10:13:14;;;;;;;1.17;0.80;;;;;;;;;;6313513;22;20195;-79
2023/11/15 10:15:43;;;;;;;1.15;0.80;;;;;;;;;;6312931;22;20160;-81
2023/11/15 10:18:12;;;;;;;0.68;0.63;;;;;;;;;;6312357;22;20670;-80
2023/11/15 10:20:41;;;;;;;1.02;0.70;;;;;;;;;;6313306;22;20168;-80
2023/11/15 10:23:11;;;;;;;1.48;1.38;;;;;;;;;;6313285;22;20882;-80
2023/11/15 10:25:50;;;;;;;7.55;3.33;;;;;;;;;;6312675;22;20673;-80
2023/11/15 10:28:21;;;;;;;2.25;1.55;;;;;;;;;;6311499;22;20222;-80
2023/11/15 10:31:04;;;;;;;2.95;2.10;;;;;;;;;;6310440;22;20216;-81
2023/11/15 10:33:32;;;;;;;1.48;1.27;;;;;;;;;;6312257;22;20219;-79
2023/11/15 10:36:16;;;;;;;4.20;2.13;;;;;;;;;;6311904;22;20175;-79
2023/11/15 10:38:46;;;;;;;3.17;1.77;;;;;;;;;;6312798;22;20192;-79
2023/11/15 10:41:19;;;;;;;1.88;1.77;;;;;;;;;;6312619;22;20251;-79
2023/11/15 10:43:52;;;;;;;1.58;1.20;;;;;;;;;;6311751;22;20178;-79
2023/11/15 10:46:28;;;;;;;1.88;1.10;;;;;;;;;;6310620;22;20235;-79
2023/11/15 10:48:57;;;;;;;1.52;1.02;;;;;;;;;;6311701;22;20191;-79
2023/11/15 10:51:29;;;;;;;1.52;1.13;;;;;;;;;;6311951;22;20182;-79
2023/11/15 10:53:58;;;;;;;1.27;0.90;;;;;;;;;;6312606;22;20164;-79
2023/11/15 10:56:26;;;;;;;1.67;0.90;;;;;;;;;;6311915;22;20668;-79
2023/11/15 10:58:53;;;;;;;1.30;1.00;;;;;;;;;;6311771;22;20178;-80
2023/11/15 11:01:22;;;;;;;0.90;0.90;;;;;;;;;;6311840;22;20183;-80
2023/11/15 11:03:54;;;;;;;0.90;0.90;;;;;;;;;;6312512;22;20179;-80
2023/11/15 11:06:28;;;;;;;0.85;0.85;;;;;;;;;;6310905;22;20211;-80
2023/11/15 11:09:09;;;;;;;1.27;1.02;;;;;;;;;;6311571;22;20248;-80
2023/11/15 11:11:44;;;;;;;0.82;0.80;;;;;;;;;;6312674;22;20588;-80
2023/11/15 11:14:17;;;;;;;1.85;1.50;;;;;;;;;;6312178;22;20537;-80
2023/11/15 11:16:45;;;;;;;3.05;1.33;;;;;;;;;;6311736;22;20523;-80
2023/11/15 11:19:16;;;;;;;2.50;1.88;;;;;;;;;;6310321;22;20176;-80
2023/11/15 11:22:11;;;;;;;2.90;1.40;;;;;;;;;;6311021;22;20156;-80
2023/11/15 11:24:45;;;;;;;2.60;1.40;;;;;;;;;;6310777;22;20160;-79
2023/11/15 11:27:36;;;;;;;10.02;2.67;;;;;;;;;;6310578;22;20198;-79
2023/11/15 11:30:19;;;;;;;3.97;1.85;;;;;;;;;;6310668;22;20182;-79
2023/11/15 11:32:47;;;;;;;2.33;2.13;;;;;;;;;;6310158;22;20198;-80
2023/11/15 11:35:37;;;;;;;4.40;1.77;;;;;;;;;;6310486;22;20561;-79
2023/11/15 11:38:05;;;;;;;1.92;1.65;;;;;;;;;;6310359;22;20266;-80
2023/11/15 11:40:39;;;;;;;1.48;1.00;;;;;;;;;;6311177;22;20178;-80
2023/11/15 11:43:31;;;;;;;1.95;1.30;;;;;;;;;;6310575;22;20476;-80
2023/11/15 11:46:13;;;;;;;1.23;1.08;;;;;;;;;;6305716;22;20186;-80
2023/11/15 11:48:41;;;;;;;2.75;1.30;;;;;;;;;;6309638;22;20733;-80
2023/11/15 11:51:08;;;;;;;6.05;2.53;;;;;;;;;;6310828;22;20255;-80
2023/11/15 11:53:38;;;;;;;2.22;1.50;;;;;;;;;;6310235;22;20199;-80
2023/11/15 11:56:10;;;;;;;3.92;2.03;;;;;;;;;;6311335;22;20172;-80
2023/11/15 11:58:39;;;;;;;2.72;2.00;;;;;;;;;;6311553;22;20192;-80
2023/11/15 12:01:09;;;;;;;2.30;2.00;;;;;;;;;;6310999;22;20572;-80
2023/11/15 12:03:41;;;;;;;4.22;2.28;;;;;;;;;;6309742;22;20228;-80
2023/11/15 12:06:10;;;;;;;6.50;2.30;;;;;;;;;;6310448;22;20243;-80
2023/11/15 12:08:40;;;;;;;4.82;1.90;;;;;;;;;;6310793;22;20195;-80
2023/11/15 12:11:11;;;;;;;3.83;1.83;;;;;;;;;;6309907;22;20195;-80
2023/11/15 12:13:47;;;;;;;2.85;1.60;;;;;;;;;;6310616;22;20577;-81
2023/11/15 12:16:20;;;;;;;2.63;1.17;;;;;;;;;;6311224;22;20166;-80
2023/11/15 12:19:03;;;;;;;1.80;1.40;;;;;;;;;;6310148;22;20156;-80
2023/11/15 12:21:36;;;;;;;3.17;2.08;;;;;;;;;;6309860;22;20156;-80
2023/11/15 12:24:09;;;;;;;4.75;1.30;;;;;;;;;;6308928;22;20160;-80
2023/11/15 12:26:46;;;;;;;2.25;1.50;;;;;;;;;;6309807;22;20588;-79
2023/11/15 12:29:26;;;;;;;3.00;1.60;;;;;;;;;;6310111;22;20209;-80
2023/11/15 12:31:56;;;;;;;2.28;1.27;;;;;;;;;;6310628;22;20655;-80
2023/11/15 12:34:24;;;;;;;3.35;1.50;;;;;;;;;;6310445;22;20195;-81
2023/11/15 12:36:52;;;;;;;1.98;1.40;;;;;;;;;;6310080;22;20531;-80
2023/11/15 12:39:21;;;;;;;2.00;1.67;;;;;;;;;;6309478;22;20232;-81
2023/11/15 12:41:52;;;;;;;2.05;1.33;;;;;;;;;;6310012;22;20179;-81
2023/11/15 12:44:20;;;;;;;2.75;1.75;;;;;;;;;;6310505;22;20589;-81
2023/11/15 12:46:51;;;;;;;1.77;1.55;;;;;;;;;;6310165;22;20249;-79
2023/11/15 12:49:23;;;;;;;1.60;1.23;;;;;;;;;;6309262;22;20552;-80
2023/11/15 12:51:52;;;;;;;2.75;1.83;;;;;;;;;;6309896;22;20202;-80
2023/11/15 12:54:20;;;;;;;2.55;1.73;;;;;;;;;;6309235;22;20172;-80
2023/11/15 12:57:05;;;;;;;2.70;1.20;;;;;;;;;;6310828;22;20270;-80
2023/11/15 12:59:37;;;;;;;2.45;1.70;;;;;;;;;;6309530;22;20190;-79
2023/11/15 13:02:05;;;;;;;2.75;1.42;;;;;;;;;;6310694;22;20314;-79
2023/11/15 13:04:51;;;;;;;1.20;1.20;;;;;;;;;;6310170;22;20184;-80
2023/11/15 13:07:18;;;;;;;1.38;1.25;;;;;;;;;;6310828;22;20701;-79
2023/11/15 13:09:46;;;;;;;2.70;1.10;;;;;;;;;;6310099;22;20667;-80
2023/11/15 13:12:25;;;;;;;4.38;1.30;;;;;;;;;;6309166;22;20227;-80
2023/11/15 13:14:53;;;;;;;2.50;1.20;;;;;;;;;;6309034;22;20168;-80
2023/11/15 13:17:21;;;;;;;1.83;1.30;;;;;;;;;;6310004;22;20219;-80
2023/11/15 13:19:49;;;;;;;2.33;1.35;;;;;;;;;;6310485;22;20171;-80
2023/11/15 13:22:17;;;;;;;1.38;1.00;;;;;;;;;;6310543;22;20180;-79
2023/11/15 13:24:48;;;;;;;0.80;0.80;;;;;;;;;;6308851;22;20199;-79
2023/11/15 13:27:17;;;;;;;3.38;1.45;;;;;;;;;;6310437;22;20192;-79
2023/11/15 13:29:47;;;;;;;1.48;1.20;;;;;;;;;;6309449;22;20195;-79
2023/11/15 13:32:15;;;;;;;2.33;1.10;;;;;;;;;;6310031;22;20212;-79
2023/11/15 13:34:45;;;;;;;1.13;1.00;;;;;;;;;;6310806;22;20172;-79
2023/11/15 13:37:13;;;;;;;1.42;0.98;;;;;;;;;;6309711;22;20245;-79
2023/11/15 13:39:40;;;;;;;1.52;1.20;;;;;;;;;;6309733;22;20244;-79
2023/11/15 13:42:08;;;;;;;6.85;1.55;;;;;;;;;;6309798;22;20178;-79
2023/11/15 13:44:36;;;;;;;5.00;1.42;;;;;;;;;;6309228;22;20172;-80
2023/11/15 13:47:06;;;;;;;1.30;1.20;;;;;;;;;;6310953;22;20601;-81
2023/11/15 13:49:34;;;;;;;3.92;1.55;;;;;;;;;;6311113;22;20179;-80
2023/11/15 13:52:01;;;;;;;2.70;1.20;;;;;;;;;;6310635;22;20585;-80
2023/11/15 13:54:29;;;;;;;1.10;1.00;;;;;;;;;;6312330;22;20487;-81
2023/11/15 13:56:56;;;;;;;3.17;1.00;;;;;;;;;;6311441;22;20226;-79
2023/11/15 13:59:23;;;;;;;1.80;1.20;;;;;;;;;;6311003;22;20666;-80
2023/11/15 14:01:51;;;;;;;1.13;0.90;;;;;;;;;;6311212;22;20246;-80
2023/11/15 14:04:20;;;;;;;0.90;0.90;;;;;;;;;;6310366;22;20538;-79
2023/11/15 14:06:47;;;;;;;0.60;0.60;;;;;;;;;;6313084;22;20251;-79
2023/11/15 14:09:15;;;;;;;1.30;0.98;;;;;;;;;;6312000;22;20620;-81
2023/11/15 14:11:42;;;;;;;1.08;1.00;;;;;;;;;;6311888;22;20202;-80
2023/11/15 14:14:10;;;;;;;4.07;1.50;;;;;;;;;;6311979;22;20231;-80
2023/11/15 14:16:38;;;;;;;2.25;1.40;;;;;;;;;;6312660;22;20182;-79
2023/11/15 14:19:09;;;;;;;2.35;1.10;;;;;;;;;;6311821;22;20175;-79
2023/11/15 14:21:40;;;;;;;1.30;1.20;;;;;;;;;;6311861;22;20238;-80
2023/11/15 14:24:10;;;;;;;3.58;1.92;;;;;;;;;;6312386;22;20160;-79
2023/11/15 14:26:38;;;;;;;3.58;2.17;;;;;;;;;;6312101;22;20176;-79
2023/11/15 14:29:08;;;;;;;2.47;1.77;;;;;;;;;;6311387;22;20176;-80
2023/11/15 14:31:38;;;;;;;3.08;1.75;;;;;;;;;;6312759;22;20660;-80
2023/11/15 14:34:07;;;;;;;1.85;1.50;;;;;;;;;;6311622;22;20549;-80
2023/11/15 14:36:37;;;;;;;3.85;2.00;;;;;;;;;;6311520;22;20256;-80
2023/11/15 14:39:07;;;;;;;3.03;2.03;;;;;;;;;;6310372;22;20254;-79
2023/11/15 14:41:35;;;;;;;4.95;1.95;;;;;;;;;;6311456;22;20179;-79
2023/11/15 14:44:03;;;;;;;3.13;1.75;;;;;;;;;;6311345;22;20227;-79
2023/11/15 14:46:32;;;;;;;4.85;1.92;;;;;;;;;;6310745;22;20178;-79
2023/11/15 14:49:00;;;;;;;6.07;3.42;;;;;;;;;;6309833;22;20640;-79
2023/11/15 14:51:27;;;;;;;1.88;1.55;;;;;;;;;;6309647;22;20507;-79
2023/11/15 14:53:56;;;;;;;4.13;1.23;;;;;;;;;;6309028;22;20206;-78
2023/11/15 14:56:28;;;;;;;3.83;1.95;;;;;;;;;;6309548;22;20647;-80
2023/11/15 14:58:55;;;;;;;4.97;1.55;;;;;;;;;;6310480;22;20206;-77